Time;durP1;ratioP1;P1;durP2;ratioP2;P2;SDS_P1;SDS_P2;PMS_P1;PMS_P2;Temp;Humidity;BMP_temperature;BMP_pressure;BME280_temperature;BME280_humidity;BME280_pressure;Samples;Min_cycle;Max_cycle;Signal;HPM_P1;HPM_P2
2023/04/03 00:00:29;;;;;;;;;;;;;;;8.42;67.23;92781.53;2052517;69;20051;-78
2023/04/03 00:02:54;;;;;;;;;;;;;;;8.60;66.79;92773.66;2052731;69;20055;-75
2023/04/03 00:05:20;;;;;;;;;;;;;;;8.61;66.75;92775.88;2065373;69;20050;-78
2023/04/03 00:07:45;;;;;;;;;;;;;;;8.57;66.81;92780.47;2052985;69;20132;-76
2023/04/03 00:10:13;;;;;;;;;;;;;;;7.76;69.83;92781.81;2053192;70;20144;-74
2023/04/03 00:12:39;;;;;;;;;;;;;;;7.82;70.46;92775.88;2053182;70;20046;-76
2023/04/03 00:15:06;;;;;;;;;;;;;;;7.72;70.49;92772.38;2053254;70;20046;-77
2023/04/03 00:17:38;;;;;;;;;;;;;;;7.97;70.38;92780.44;2052963;70;20062;-77
2023/04/03 00:20:05;;;;;;;;;;;;;;;8.07;69.47;92772.78;2052770;70;20419;-77
2023/04/03 00:22:31;;;;;;;;;;;;;;;8.25;68.53;92781.72;2052795;70;20123;-77
2023/04/03 00:24:56;;;;;;;;;;;;;;;8.33;68.83;92782.28;2052709;69;20059;-76
2023/04/03 00:27:22;;;;;;;;;;;;;;;8.55;66.80;92783.13;2052857;70;20046;-75
2023/04/03 00:29:47;;;;;;;;;;;;;;;8.46;69.15;92779.03;2065619;69;20133;-76
2023/04/03 00:32:15;;;;;;;;;;;;;;;8.37;68.86;92782.59;2065495;69;20058;-78
2023/04/03 00:34:40;;;;;;;;;;;;;;;8.44;67.31;92781.69;2063039;69;20046;-75
2023/04/03 00:37:05;;;;;;;;;;;;;;;8.50;66.85;92781.38;2066071;69;20150;-76
2023/04/03 00:39:31;;;;;;;;;;;;;;;8.18;67.96;92779.81;2066329;69;20059;-78
2023/04/03 00:41:57;;;;;;;;;;;;;;;8.08;67.33;92786.19;2065935;69;20736;-77
2023/04/03 00:44:28;;;;;;;;;;;;;;;8.22;66.91;92780.84;2052762;69;20054;-78
2023/04/03 00:46:54;;;;;;;;;;;;;;;8.35;66.41;92780.38;2052639;70;20066;-77
2023/04/03 00:49:20;;;;;;;;;;;;;;;8.32;66.83;92784.34;2065739;69;20137;-78
2023/04/03 00:51:46;;;;;;;;;;;;;;;8.26;66.78;92780.41;2052629;70;20229;-78
2023/04/03 00:54:12;;;;;;;;;;;;;;;8.24;67.11;92783.78;2065559;69;20091;-77
2023/04/03 00:56:38;;;;;;;;;;;;;;;8.08;67.05;92780.56;2048806;69;20051;-76
2023/04/03 00:59:10;;;;;;;;;;;;;;;7.29;70.50;92786.81;2065312;69;20114;-76
2023/04/03 01:01:36;;;;;;;;;;;;;;;7.32;71.12;92780.00;2065206;69;20119;-76
2023/04/03 01:04:03;;;;;;;;;;;;;;;7.36;70.46;92783.13;2052362;70;20082;-75
2023/04/03 01:06:31;;;;;;;;;;;;;;;6.74;73.07;92781.97;2052589;69;20147;-76
2023/04/03 01:09:03;;;;;;;;;;;;;;;7.14;72.04;92784.25;2065278;69;20466;-75
2023/04/03 01:11:29;;;;;;;;;;;;;;;7.42;70.94;92780.00;2064765;69;20055;-76
2023/04/03 01:13:55;;;;;;;;;;;;;;;7.62;70.11;92787.13;2065401;69;20051;-76
2023/04/03 01:16:20;;;;;;;;;;;;;;;7.69;70.46;92781.94;2065266;69;20059;-75
2023/04/03 01:18:46;;;;;;;;;;;;;;;7.83;68.78;92780.16;2045711;69;20406;-76
2023/04/03 01:21:16;;;;;;;;;;;;;;;7.92;68.21;92787.09;2062575;69;20059;-75
2023/04/03 01:23:54;;;;;;;;;;;;;;;7.90;67.76;92790.50;2051761;70;20499;-76
2023/04/03 01:26:19;;;;;;;;;;;;;;;7.79;67.66;92793.88;2065339;69;20206;-78
2023/04/03 01:28:46;;;;;;;;;;;;;;;7.38;69.09;92793.75;2065687;69;20491;-76
2023/04/03 01:31:24;;;;;;;;;;;;;;;7.70;67.51;92791.81;2065757;69;20498;-76
2023/04/03 01:33:52;;;;;;;;;;;;;;;7.75;66.91;92805.56;2052641;69;20046;-75
2023/04/03 01:36:28;;;;;;;;;;;;;;;7.71;66.61;92805.25;2052606;70;20043;-75
2023/04/03 01:38:55;;;;;;;;;;;;;;;7.69;66.63;92798.75;2053150;69;20097;-76
2023/04/03 01:41:22;;;;;;;;;;;;;;;7.37;65.85;92795.78;2053974;69;20490;-75
2023/04/03 01:43:51;;;;;;;;;;;;;;;7.51;67.07;92796.09;2065794;69;20179;-76
2023/04/03 01:46:17;;;;;;;;;;;;;;;7.74;67.05;92806.13;2052572;70;20580;-77
2023/04/03 01:48:42;;;;;;;;;;;;;;;7.28;68.36;92798.56;2065467;69;20116;-76
2023/04/03 01:51:08;;;;;;;;;;;;;;;7.17;67.98;92799.16;2065344;69;20062;-77
2023/04/03 01:53:34;;;;;;;;;;;;;;;6.72;68.99;92801.38;2052350;69;20510;-76
2023/04/03 01:56:00;;;;;;;;;;;;;;;7.25;67.86;92796.97;2046212;69;20054;-77
2023/04/03 01:58:28;;;;;;;;;;;;;;;7.11;66.93;92805.06;2062464;69;20058;-77
2023/04/03 02:00:55;;;;;;;;;;;;;;;7.22;66.59;92807.28;2065314;69;20074;-76
2023/04/03 02:03:21;;;;;;;;;;;;;;;7.32;65.60;92799.63;2065321;69;20487;-79
2023/04/03 02:05:49;;;;;;;;;;;;;;;6.93;67.97;92807.22;2065243;69;20054;-78
2023/04/03 02:08:17;;;;;;;;;;;;;;;7.17;66.25;92807.56;2052284;69;20061;-79
2023/04/03 02:10:44;;;;;;;;;;;;;;;6.95;67.04;92803.81;2052304;70;20082;-78
2023/04/03 02:13:11;;;;;;;;;;;;;;;7.18;65.99;92800.63;2052309;70;20149;-76
2023/04/03 02:15:39;;;;;;;;;;;;;;;7.11;66.77;92797.38;2052673;70;20059;-77
2023/04/03 02:18:06;;;;;;;;;;;;;;;7.39;65.46;92801.56;2064897;69;20059;-77
2023/04/03 02:20:33;;;;;;;;;;;;;;;7.09;65.99;92804.88;2052522;69;20081;-76
2023/04/03 02:22:59;;;;;;;;;;;;;;;7.06;65.76;92803.28;2065383;69;20058;-76
2023/04/03 02:25:26;;;;;;;;;;;;;;;7.23;65.92;92808.75;2065344;69;20141;-77
2023/04/03 02:27:51;;;;;;;;;;;;;;;7.26;65.83;92812.44;2052604;70;20146;-77
2023/04/03 02:30:18;;;;;;;;;;;;;;;7.26;66.49;92806.84;2052107;70;20157;-76
2023/04/03 02:32:45;;;;;;;;;;;;;;;7.27;64.98;92805.50;2062233;69;20081;-76
2023/04/03 02:35:11;;;;;;;;;;;;;;;6.82;65.52;92802.88;2065335;69;20146;-77
2023/04/03 02:37:38;;;;;;;;;;;;;;;6.77;66.23;92803.91;2065433;69;20059;-77
2023/04/03 02:40:04;;;;;;;;;;;;;;;7.05;65.50;92804.56;2065161;69;20073;-77
2023/04/03 02:42:29;;;;;;;;;;;;;;;7.11;65.06;92805.06;2052427;69;20510;-78
2023/04/03 02:44:55;;;;;;;;;;;;;;;7.03;65.00;92807.97;2052224;70;20153;-76
2023/04/03 02:47:22;;;;;;;;;;;;;;;7.04;65.44;92805.91;2065069;69;20051;-75
2023/04/03 02:49:48;;;;;;;;;;;;;;;7.05;65.27;92812.97;2065312;69;20047;-76
2023/04/03 02:52:14;;;;;;;;;;;;;;;6.95;65.24;92806.63;2065091;69;20458;-74
2023/04/03 02:54:40;;;;;;;;;;;;;;;6.86;65.16;92808.78;2065317;69;20050;-75
2023/04/03 02:57:11;;;;;;;;;;;;;;;6.81;65.90;92809.81;2065041;69;20419;-76
2023/04/03 02:59:40;;;;;;;;;;;;;;;6.87;65.84;92815.13;2064697;69;20055;-77
2023/04/03 03:02:10;;;;;;;;;;;;;;;6.78;66.05;92813.81;2065082;69;20316;-77
2023/04/03 03:04:35;;;;;;;;;;;;;;;6.80;66.65;92816.00;2065667;69;20097;-78
2023/04/03 03:07:01;;;;;;;;;;;;;;;6.66;66.14;92823.31;2053964;70;20082;-77
2023/04/03 03:09:29;;;;;;;;;;;;;;;6.58;65.07;92824.16;2052668;70;20425;-78
2023/04/03 03:11:55;;;;;;;;;;;;;;;6.80;64.65;92827.19;2065641;69;20501;-77
2023/04/03 03:14:21;;;;;;;;;;;;;;;6.81;64.41;92818.22;2052345;70;20449;-79
2023/04/03 03:16:49;;;;;;;;;;;;;;;6.81;64.18;92815.41;2065026;69;20046;-75
2023/04/03 03:19:14;;;;;;;;;;;;;;;6.70;65.52;92818.78;2048318;70;20220;-78
2023/04/03 03:21:42;;;;;;;;;;;;;;;6.66;64.95;92815.66;2062087;69;20430;-76
2023/04/03 03:24:09;;;;;;;;;;;;;;;6.70;64.89;92818.78;2065013;69;20058;-77
2023/04/03 03:26:35;;;;;;;;;;;;;;;6.75;63.79;92814.22;2065127;69;20070;-77
2023/04/03 03:29:01;;;;;;;;;;;;;;;6.71;63.92;92819.50;2052231;70;20153;-77
2023/04/03 03:31:28;;;;;;;;;;;;;;;6.68;64.07;92820.66;2052729;69;20046;-77
2023/04/03 03:33:54;;;;;;;;;;;;;;;6.68;63.49;92821.41;2052680;70;20067;-78
2023/04/03 03:36:21;;;;;;;;;;;;;;;6.59;63.94;92811.66;2052461;70;20062;-78
2023/04/03 03:38:46;;;;;;;;;;;;;;;6.59;64.25;92819.31;2046084;69;20054;-77
2023/04/03 03:41:13;;;;;;;;;;;;;;;6.51;65.00;92810.31;2065120;69;20521;-76
2023/04/03 03:43:41;;;;;;;;;;;;;;;6.49;64.66;92812.94;2052645;70;20138;-75
2023/04/03 03:46:07;;;;;;;;;;;;;;;6.49;64.36;92812.94;2065408;69;20090;-75
2023/04/03 03:48:33;;;;;;;;;;;;;;;6.48;64.93;92808.66;2052608;69;20051;-76
2023/04/03 03:50:58;;;;;;;;;;;;;;;6.39;66.27;92809.34;2052500;70;20124;-77
2023/04/03 03:53:28;;;;;;;;;;;;;;;6.52;65.74;92808.97;2068005;69;20037;-77
2023/04/03 03:55:58;;;;;;;;;;;;;;;6.45;65.40;92813.34;2068020;69;20148;-77
2023/04/03 03:58:25;;;;;;;;;;;;;;;6.39;65.29;92807.28;2065407;69;20149;-76
2023/04/03 04:00:53;;;;;;;;;;;;;;;6.36;65.17;92814.03;2068163;69;20053;-77
2023/04/03 04:03:18;;;;;;;;;;;;;;;6.41;64.95;92817.88;2068469;69;20063;-78
2023/04/03 04:05:46;;;;;;;;;;;;;;;6.28;65.05;92819.03;2068901;69;20127;-78
2023/04/03 04:08:12;;;;;;;;;;;;;;;6.45;64.45;92815.41;2065609;69;20056;-76
2023/04/03 04:10:38;;;;;;;;;;;;;;;6.27;64.71;92818.25;2068430;69;20053;-78
2023/04/03 04:13:05;;;;;;;;;;;;;;;6.20;64.95;92824.72;2068264;69;20493;-77
2023/04/03 04:15:31;;;;;;;;;;;;;;;5.82;65.05;92822.38;2068735;69;20049;-78
2023/04/03 04:17:57;;;;;;;;;;;;;;;5.53;65.54;92824.94;2068913;69;20111;-78
2023/04/03 04:20:22;;;;;;;;;;;;;;;5.88;65.46;92830.50;2069151;69;20065;-77
2023/04/03 04:22:48;;;;;;;;;;;;;;;5.74;66.15;92825.25;2068909;69;20056;-78
2023/04/03 04:25:15;;;;;;;;;;;;;;;5.21;67.14;92832.16;2068225;69;20079;-77
2023/04/03 04:27:40;;;;;;;;;;;;;;;4.94;67.88;92837.59;2065436;69;20057;-78
2023/04/03 04:30:07;;;;;;;;;;;;;;;4.98;68.78;92837.19;2068341;69;20435;-78
2023/04/03 04:32:33;;;;;;;;;;;;;;;4.53;70.28;92841.81;2068396;69;20041;-77
2023/04/03 04:35:00;;;;;;;;;;;;;;;4.69;70.09;92834.09;2068375;69;20156;-78
2023/04/03 04:37:33;;;;;;;;;;;;;;;4.89;69.13;92838.56;2068693;69;20148;-80
2023/04/03 04:40:03;;;;;;;;;;;;;;;5.37;67.53;92829.22;2069503;69;20060;-78
2023/04/03 04:42:29;;;;;;;;;;;;;;;5.68;66.22;92833.16;2070059;69;20053;-79
2023/04/03 04:44:55;;;;;;;;;;;;;;;5.73;65.97;92837.03;2070642;69;20052;-78
2023/04/03 04:47:21;;;;;;;;;;;;;;;5.38;67.00;92839.06;2071112;69;20045;-77
2023/04/03 04:49:47;;;;;;;;;;;;;;;5.27;66.89;92832.66;2071994;69;20057;-78
2023/04/03 04:52:14;;;;;;;;;;;;;;;5.43;66.82;92832.50;2073467;69;20091;-78
2023/04/03 04:54:41;;;;;;;;;;;;;;;5.60;65.75;92827.66;2072709;69;20406;-78
2023/04/03 04:57:07;;;;;;;;;;;;;;;4.92;67.50;92836.69;2071632;69;20472;-78
2023/04/03 04:59:33;;;;;;;;;;;;;;;5.07;67.38;92837.28;2070058;69;20041;-79
2023/04/03 05:01:58;;;;;;;;;;;;;;;4.87;68.45;92832.84;2070828;69;20045;-77
2023/04/03 05:04:26;;;;;;;;;;;;;;;5.26;67.08;92842.31;2069903;69;20200;-78
2023/04/03 05:06:59;;;;;;;;;;;;;;;5.10;67.63;92847.31;2069971;69;20424;-78
2023/04/03 05:09:28;;;;;;;;;;;;;;;4.83;68.48;92844.38;2069609;69;20586;-78
2023/04/03 05:11:56;;;;;;;;;;;;;;;4.58;69.36;92847.19;2070306;69;20077;-78
2023/04/03 05:14:26;;;;;;;;;;;;;;;4.48;69.97;92840.00;2069602;69;20563;-76
2023/04/03 05:16:57;;;;;;;;;;;;;;;4.92;68.16;92850.66;2065506;69;20041;-76
2023/04/03 05:19:25;;;;;;;;;;;;;;;4.82;68.63;92854.06;2068648;69;20068;-73
2023/04/03 05:21:51;;;;;;;;;;;;;;;5.11;67.45;92850.84;2069088;69;20452;-76
2023/04/03 05:24:17;;;;;;;;;;;;;;;5.19;67.24;92868.28;2066754;69;20136;-75
2023/04/03 05:26:44;;;;;;;;;;;;;;;5.13;67.76;92862.16;2068676;69;20203;-78
2023/04/03 05:29:10;;;;;;;;;;;;;;;5.52;66.22;92860.50;2068552;69;20045;-78
2023/04/03 05:31:36;;;;;;;;;;;;;;;5.38;65.42;92861.41;2065543;69;20057;-79
2023/04/03 05:34:05;;;;;;;;;;;;;;;4.80;67.15;92862.25;2069510;69;20083;-78
2023/04/03 05:36:35;;;;;;;;;;;;;;;5.13;67.22;92864.22;2069847;69;20072;-78
2023/04/03 05:39:04;;;;;;;;;;;;;;;5.50;66.25;92868.72;2068676;69;20071;-77
2023/04/03 05:41:30;;;;;;;;;;;;;;;5.64;66.26;92868.41;2068494;69;20049;-78
2023/04/03 05:43:55;;;;;;;;;;;;;;;5.72;65.56;92863.44;2068990;69;20057;-78
2023/04/03 05:46:23;;;;;;;;;;;;;;;5.67;64.74;92873.56;2068196;69;20045;-77
2023/04/03 05:48:52;;;;;;;;;;;;;;;5.64;64.82;92857.22;2065584;69;20039;-77
2023/04/03 05:51:27;;;;;;;;;;;;;;;5.44;65.76;92868.22;2068351;69;20123;-76
2023/04/03 05:54:03;;;;;;;;;;;;;;;5.81;64.51;92871.16;2068082;69;20084;-75
2023/04/03 05:56:31;;;;;;;;;;;;;;;6.05;63.62;92864.03;2068511;69;20132;-76
2023/04/03 05:58:57;;;;;;;;;;;;;;;6.15;63.57;92864.84;2068214;69;20132;-76
2023/04/03 06:01:23;;;;;;;;;;;;;;;6.26;63.35;92852.41;2067947;69;20129;-78
2023/04/03 06:03:48;;;;;;;;;;;;;;;6.32;63.55;92864.81;2068368;69;20388;-78
2023/04/03 06:06:15;;;;;;;;;;;;;;;6.49;63.67;92866.06;2068406;69;20068;-77
2023/04/03 06:08:40;;;;;;;;;;;;;;;6.41;63.03;92873.81;2067970;69;20045;-79
2023/04/03 06:11:08;;;;;;;;;;;;;;;5.97;63.38;92878.09;2068680;69;20047;-79
2023/04/03 06:13:37;;;;;;;;;;;;;;;5.58;63.50;92869.38;2068040;69;20146;-79
2023/04/03 06:16:03;;;;;;;;;;;;;;;5.64;63.81;92871.19;2068118;69;20045;-77
2023/04/03 06:18:29;;;;;;;;;;;;;;;6.26;62.69;92878.28;2065290;69;20049;-77
2023/04/03 06:20:55;;;;;;;;;;;;;;;5.94;62.09;92875.72;2068026;69;20042;-77
2023/04/03 06:23:21;;;;;;;;;;;;;;;5.45;63.78;92869.72;2067690;69;20059;-79
2023/04/03 06:25:46;;;;;;;;;;;;;;;5.01;65.20;92875.13;2067949;69;20049;-76
2023/04/03 06:28:12;;;;;;;;;;;;;;;5.21;65.50;92876.81;2068056;69;20080;-77
2023/04/03 06:30:39;;;;;;;;;;;;;;;5.07;65.70;92878.41;2068563;69;20381;-79
2023/04/03 06:33:05;;;;;;;;;;;;;;;5.92;63.38;92881.88;2068466;69;20073;-78
2023/04/03 06:35:31;;;;;;;;;;;;;;;6.28;62.16;92881.25;2068414;69;20077;-78
2023/04/03 06:37:56;;;;;;;;;;;;;;;5.51;63.31;92886.94;2067638;69;20119;-76
2023/04/03 06:40:27;;;;;;;;;;;;;;;5.89;62.68;92885.06;2068331;69;20056;-78
2023/04/03 06:42:53;;;;;;;;;;;;;;;5.79;63.82;92885.72;2068462;69;20508;-79
2023/04/03 06:45:20;;;;;;;;;;;;;;;5.97;62.14;92878.09;2067828;69;20469;-79
2023/04/03 06:47:45;;;;;;;;;;;;;;;6.33;61.22;92885.84;2068430;69;20253;-77
2023/04/03 06:50:14;;;;;;;;;;;;;;;6.31;60.97;92891.28;2067899;69;20045;-80
2023/04/03 06:52:40;;;;;;;;;;;;;;;6.29;61.89;92884.81;2065968;69;20063;-79
2023/04/03 06:55:08;;;;;;;;;;;;;;;6.83;59.48;92891.13;2052209;69;20066;-77
2023/04/03 06:57:33;;;;;;;;;;;;;;;7.24;59.38;92883.03;2052006;70;20479;-75
2023/04/03 06:59:59;;;;;;;;;;;;;;;6.49;59.31;92891.25;2052243;70;20047;-73
2023/04/03 07:02:28;;;;;;;;;;;;;;;7.19;58.28;92877.69;2064928;69;20094;-75
2023/04/03 07:04:54;;;;;;;;;;;;;;;5.74;62.82;92886.72;2052066;70;20470;-74
2023/04/03 07:07:20;;;;;;;;;;;;;;;6.14;61.30;92885.75;2052494;70;20112;-77
2023/04/03 07:09:47;;;;;;;;;;;;;;;5.68;62.92;92893.84;2052472;70;20062;-74
2023/04/03 07:12:13;;;;;;;;;;;;;;;6.77;60.43;92887.84;2066319;69;20059;-76
2023/04/03 07:14:38;;;;;;;;;;;;;;;6.81;59.63;92887.44;2053861;70;20054;-75
2023/04/03 07:17:07;;;;;;;;;;;;;;;6.54;59.92;92893.03;2052698;70;20047;-77
2023/04/03 07:19:33;;;;;;;;;;;;;;;6.78;59.08;92888.59;2065222;69;20088;-77
2023/04/03 07:21:59;;;;;;;;;;;;;;;7.06;58.38;92896.38;2052295;70;20042;-78
2023/04/03 07:24:26;;;;;;;;;;;;;;;7.03;59.07;92894.75;2052036;70;20131;-78
2023/04/03 07:26:52;;;;;;;;;;;;;;;6.59;60.39;92892.03;2065198;69;20541;-77
2023/04/03 07:29:18;;;;;;;;;;;;;;;6.62;60.82;92888.81;2052248;70;20054;-78
2023/04/03 07:31:44;;;;;;;;;;;;;;;6.64;60.40;92896.63;2052149;69;20051;-76
2023/04/03 07:34:10;;;;;;;;;;;;;;;6.93;59.98;92896.03;2052284;70;20046;-76
2023/04/03 07:36:36;;;;;;;;;;;;;;;7.18;58.70;92898.63;2052401;69;20136;-75
2023/04/03 07:39:01;;;;;;;;;;;;;;;6.25;60.44;92904.03;2052102;70;20430;-78
2023/04/03 07:41:27;;;;;;;;;;;;;;;6.25;61.14;92904.78;2052103;69;20047;-78
2023/04/03 07:43:52;;;;;;;;;;;;;;;5.95;62.11;92905.88;2051794;70;20058;-78
2023/04/03 07:46:20;;;;;;;;;;;;;;;6.62;59.87;92907.66;2052112;70;20050;-78
2023/04/03 07:48:47;;;;;;;;;;;;;;;5.94;61.14;92909.25;2051910;70;20494;-77
2023/04/03 07:51:12;;;;;;;;;;;;;;;5.81;61.34;92907.50;2064940;69;20063;-76
2023/04/03 07:53:40;;;;;;;;;;;;;;;6.10;61.20;92913.38;2052333;69;20058;-77
2023/04/03 07:56:06;;;;;;;;;;;;;;;6.51;60.79;92908.94;2052142;70;20055;-77
2023/04/03 07:58:32;;;;;;;;;;;;;;;6.41;60.27;92912.97;2065044;69;20066;-76
2023/04/03 08:00:58;;;;;;;;;;;;;;;6.95;59.51;92912.97;2064721;69;20047;-77
2023/04/03 08:03:23;;;;;;;;;;;;;;;7.06;57.74;92912.44;2052958;70;20441;-75
2023/04/03 08:05:50;;;;;;;;;;;;;;;7.02;57.25;92909.34;2052930;69;20047;-73
2023/04/03 08:08:18;;;;;;;;;;;;;;;7.15;57.68;92914.56;2052310;70;20054;-77
2023/04/03 08:10:45;;;;;;;;;;;;;;;7.09;57.08;92906.41;2065150;69;20152;-78
2023/04/03 08:13:10;;;;;;;;;;;;;;;7.83;56.69;92898.63;2065238;69;20069;-77
2023/04/03 08:15:36;;;;;;;;;;;;;;;7.92;55.22;92907.63;2052186;70;20478;-79
2023/04/03 08:18:02;;;;;;;;;;;;;;;8.20;54.21;92906.16;2052000;70;20059;-79
2023/04/03 08:20:28;;;;;;;;;;;;;;;8.37;52.54;92895.53;2052037;70;20138;-80
2023/04/03 08:22:54;;;;;;;;;;;;;;;8.21;52.89;92894.38;2052080;70;20082;-81
2023/04/03 08:25:19;;;;;;;;;;;;;;;8.77;52.57;92901.84;2065071;69;20482;-82
2023/04/03 08:27:46;;;;;;;;;;;;;;;8.72;50.86;92902.88;2052646;70;20074;-81
2023/04/03 08:30:12;;;;;;;;;;;;;;;8.79;50.93;92897.09;2052830;70;20043;-81
2023/04/03 08:32:37;;;;;;;;;;;;;;;8.83;50.80;92896.63;2052704;70;20533;-80
2023/04/03 08:35:03;;;;;;;;;;;;;;;9.00;48.82;92896.44;2066002;69;20070;-81
2023/04/03 08:37:29;;;;;;;;;;;;;;;7.44;52.81;92897.09;2054053;70;20047;-77
2023/04/03 08:39:54;;;;;;;;;;;;;;;8.09;50.95;92890.66;2066913;69;20077;-81
2023/04/03 08:42:45;;;;;;;;;;;;;;;7.62;52.08;92890.78;2069159;69;20112;-78
2023/04/03 08:45:32;;;;;;;;;;;;;;;8.92;49.81;92881.84;2056366;70;20150;-78
2023/04/03 08:48:07;;;;;;;;;;;;;;;8.97;47.83;92894.81;2057231;70;20062;-75
2023/04/03 08:50:39;;;;;;;;;;;;;;;8.05;47.20;92890.38;2057643;69;20058;-76
2023/04/03 08:53:06;;;;;;;;;;;;;;;8.02;47.58;92888.75;2057991;69;20074;-77
2023/04/03 08:55:49;;;;;;;;;;;;;;;8.22;47.89;92884.63;2055878;70;20047;-76
2023/04/03 08:58:16;;;;;;;;;;;;;;;8.24;48.13;92895.22;2052898;70;20082;-73
2023/04/03 09:00:45;;;;;;;;;;;;;;;8.78;46.91;92892.81;2052891;70;20093;-75
2023/04/03 09:03:13;;;;;;;;;;;;;;;8.16;50.31;92901.00;2053372;70;20053;-77
2023/04/03 09:05:39;;;;;;;;;;;;;;;8.62;49.24;92902.91;2053082;70;20046;-79
2023/04/03 09:08:08;;;;;;;;;;;;;;;8.75;48.39;92882.03;2053072;70;20046;-78
2023/04/03 09:10:37;;;;;;;;;;;;;;;9.08;48.91;92885.78;2055083;70;20050;-79
2023/04/03 09:13:11;;;;;;;;;;;;;;;8.41;50.45;92889.50;2056677;70;20047;-77
2023/04/03 09:15:39;;;;;;;;;;;;;;;8.40;49.44;92885.94;2056913;70;20046;-73
2023/04/03 09:18:19;;;;;;;;;;;;;;;9.09;49.18;92883.69;2054756;69;20226;-76
2023/04/03 09:21:03;;;;;;;;;;;;;;;8.77;45.83;92877.31;2055848;70;20093;-74
2023/04/03 09:23:31;;;;;;;;;;;;;;;9.03;42.77;92886.84;2056991;70;20043;-75
2023/04/03 09:26:10;;;;;;;;;;;;;;;8.88;43.04;92881.56;2056913;70;20480;-74
2023/04/03 09:28:42;;;;;;;;;;;;;;;9.34;42.89;92884.00;2056529;70;20056;-79
2023/04/03 09:31:18;;;;;;;;;;;;;;;8.63;43.16;92876.31;2066342;69;20387;-74
2023/04/03 09:33:45;;;;;;;;;;;;;;;8.83;43.44;92877.72;2053149;70;20153;-74
2023/04/03 09:36:11;;;;;;;;;;;;;;;8.99;44.56;92880.94;2065903;69;20111;-76
2023/04/03 09:38:37;;;;;;;;;;;;;;;8.83;43.35;92874.91;2049005;70;20055;-74
2023/04/03 09:41:07;;;;;;;;;;;;;;;9.40;43.04;92881.63;2052235;70;20043;-77
2023/04/03 09:43:38;;;;;;;;;;;;;;;9.39;41.79;92880.16;2052402;70;20066;-75
2023/04/03 09:46:22;;;;;;;;;;;;;;;10.12;42.29;92880.72;2052629;69;20074;-73
2023/04/03 09:49:10;;;;;;;;;;;;;;;10.51;41.53;92886.06;2052512;70;20471;-80
2023/04/03 09:51:36;;;;;;;;;;;;;;;9.62;41.57;92882.41;2052480;70;20050;-73
2023/04/03 09:54:21;;;;;;;;;;;;;;;10.30;41.97;92890.38;2054806;69;20046;-75
2023/04/03 09:56:51;;;;;;;;;;;;;;;9.61;42.46;92878.09;2065116;69;20100;-73
2023/04/03 09:59:17;;;;;;;;;;;;;;;10.40;41.87;92879.78;2065229;69;20077;-74
2023/04/03 10:01:56;;;;;;;;;;;;;;;9.35;42.39;92879.16;2065227;69;20049;-74
2023/04/03 10:04:22;;;;;;;;;;;;;;;9.27;40.95;92879.34;2065143;69;20056;-77
2023/04/03 10:06:54;;;;;;;;;;;;;;;10.13;39.25;92874.50;2065259;69;20049;-75
2023/04/03 10:09:32;;;;;;;;;;;;;;;10.16;40.66;92878.91;2048550;69;20056;-73
2023/04/03 10:12:01;;;;;;;;;;;;;;;10.17;39.97;92863.53;2048158;69;20505;-75
2023/04/03 10:14:27;;;;;;;;;;;;;;;9.28;42.25;92871.66;2065136;69;20134;-76
2023/04/03 10:17:13;;;;;;;;;;;;;;;10.19;40.02;92871.34;2065127;69;20042;-75
2023/04/03 10:19:42;;;;;;;;;;;;;;;11.17;39.76;92874.69;2064501;69;20077;-75
2023/04/03 10:22:26;;;;;;;;;;;;;;;11.18;39.19;92876.91;2065210;69;20044;-78
2023/04/03 10:25:03;;;;;;;;;;;;;;;11.75;38.65;92873.94;2048663;69;20061;-76
2023/04/03 10:27:47;;;;;;;;;;;;;;;10.35;38.85;92882.94;2064662;69;20489;-76
2023/04/03 10:30:21;;;;;;;;;;;;;;;10.56;39.25;92862.44;2064995;69;20053;-77
2023/04/03 10:32:47;;;;;;;;;;;;;;;11.41;37.18;92864.91;2064826;69;20046;-75
2023/04/03 10:35:34;;;;;;;;;;;;;;;13.03;38.25;92859.97;2065137;69;20072;-78
2023/04/03 10:38:21;;;;;;;;;;;;;;;14.48;36.09;92859.69;2048199;69;20129;-75
2023/04/03 10:41:04;;;;;;;;;;;;;;;15.12;33.37;92857.75;2065162;69;20433;-76
2023/04/03 10:43:48;;;;;;;;;;;;;;;14.30;33.25;92856.66;2065181;69;20064;-77
2023/04/03 10:46:23;;;;;;;;;;;;;;;12.56;36.56;92865.88;2065205;69;20409;-78
2023/04/03 10:48:51;;;;;;;;;;;;;;;13.16;35.97;92862.84;2065322;69;20116;-74
2023/04/03 10:51:21;;;;;;;;;;;;;;;13.25;36.27;92872.50;2064857;69;20132;-78
2023/04/03 10:53:58;;;;;;;;;;;;;;;11.04;38.10;92864.00;2057066;69;20118;-77
2023/04/03 10:56:26;;;;;;;;;;;;;;;11.36;37.46;92857.56;2068758;69;20448;-75
2023/04/03 10:59:01;;;;;;;;;;;;;;;9.52;39.65;92862.03;2068372;69;20472;-77
2023/04/03 11:01:31;;;;;;;;;;;;;;;10.49;39.59;92869.03;2068522;69;20062;-76
2023/04/03 11:03:58;;;;;;;;;;;;;;;10.02;39.84;92861.09;2068324;69;20079;-76
2023/04/03 11:06:25;;;;;;;;;;;;;;;11.35;37.85;92864.50;2068300;69;20073;-79
2023/04/03 11:08:56;;;;;;;;;;;;;;;10.17;38.26;92874.78;2067731;69;20049;-75
2023/04/03 11:11:25;;;;;;;;;;;;;;;11.06;37.82;92864.16;2068369;69;20060;-75
2023/04/03 11:14:17;;;;;;;;;;;;;;;11.49;37.70;92859.00;2068351;69;20041;-76
2023/04/03 11:16:47;;;;;;;;;;;;;;;12.55;36.35;92862.31;2066956;69;20159;-76
2023/04/03 11:19:35;;;;;;;;;;;;;;;11.77;36.83;92856.38;2068357;69;20053;-75
2023/04/03 11:22:12;;;;;;;;;;;;;;;13.16;34.32;92857.19;2068282;69;20049;-77
2023/04/03 11:24:41;;;;;;;;;;;;;;;12.39;35.63;92848.03;2068274;69;20080;-76
2023/04/03 11:27:16;;;;;;;;;;;;;;;13.77;33.59;92847.63;2067664;69;20065;-77
2023/04/03 11:29:45;;;;;;;;;;;;;;;12.87;33.64;92837.94;2068039;69;20524;-76
2023/04/03 11:32:11;;;;;;;;;;;;;;;12.07;36.58;92840.53;2067680;69;20056;-74
2023/04/03 11:34:41;;;;;;;;;;;;;;;11.23;35.96;92841.25;2068137;69;20057;-73
2023/04/03 11:37:14;;;;;;;;;;;;;;;11.33;36.33;92846.75;2068282;69;20061;-74
2023/04/03 11:39:47;;;;;;;;;;;;;;;11.16;37.50;92845.78;2068292;69;20060;-73
2023/04/03 11:42:15;;;;;;;;;;;;;;;10.28;38.54;92845.22;2067574;69;20053;-74
2023/04/03 11:44:43;;;;;;;;;;;;;;;11.06;38.00;92844.41;2068496;69;20049;-74
2023/04/03 11:47:10;;;;;;;;;;;;;;;10.59;38.77;92831.00;2068245;69;20053;-77
2023/04/03 11:49:59;;;;;;;;;;;;;;;10.86;38.72;92839.03;2068226;69;20045;-74
2023/04/03 11:52:40;;;;;;;;;;;;;;;12.39;36.73;92830.34;2067146;69;20057;-74
2023/04/03 11:55:21;;;;;;;;;;;;;;;12.59;34.97;92819.44;2052049;70;20096;-73
2023/04/03 11:58:00;;;;;;;;;;;;;;;12.75;35.38;92816.78;2052161;70;20482;-73
2023/04/03 12:00:49;;;;;;;;;;;;;;;12.76;34.52;92821.06;2051633;70;20150;-74
2023/04/03 12:03:27;;;;;;;;;;;;;;;16.25;32.75;92825.16;2052227;70;20047;-74
2023/04/03 12:05:57;;;;;;;;;;;;;;;15.95;30.84;92832.41;2052713;70;20508;-74
2023/04/03 12:08:26;;;;;;;;;;;;;;;17.92;27.42;92821.66;2052253;69;20513;-74
2023/04/03 12:11:12;;;;;;;;;;;;;;;19.44;26.85;92830.91;2052447;70;20078;-73
2023/04/03 12:13:55;;;;;;;;;;;;;;;22.59;24.00;92834.28;2065998;69;20077;-75
2023/04/03 12:16:28;;;;;;;;;;;;;;;21.68;24.76;92836.03;2053461;70;20047;-76
2023/04/03 12:19:04;;;;;;;;;;;;;;;23.00;23.93;92830.00;2054308;70;20105;-76
2023/04/03 12:21:29;;;;;;;;;;;;;;;20.57;23.55;92832.66;2052684;70;20090;-76
2023/04/03 12:23:55;;;;;;;;;;;;;;;16.56;27.70;92817.91;2052614;69;20105;-76
2023/04/03 12:26:25;;;;;;;;;;;;;;;14.53;28.75;92824.53;2065542;69;20051;-76
2023/04/03 12:28:52;;;;;;;;;;;;;;;14.10;30.47;92821.69;2051748;70;20149;-76
2023/04/03 12:31:18;;;;;;;;;;;;;;;13.39;31.73;92813.88;2051525;70;20071;-75
2023/04/03 12:33:57;;;;;;;;;;;;;;;13.21;32.28;92818.56;2052656;69;20146;-76
2023/04/03 12:36:29;;;;;;;;;;;;;;;14.11;31.80;92837.28;2052729;70;20050;-75
2023/04/03 12:39:18;;;;;;;;;;;;;;;15.15;30.73;92819.59;2052541;70;20113;-73
2023/04/03 12:41:49;;;;;;;;;;;;;;;12.24;33.62;92811.16;2052411;70;20094;-74
2023/04/03 12:44:15;;;;;;;;;;;;;;;18.33;28.30;92815.25;2052527;70;20081;-76
2023/04/03 12:46:48;;;;;;;;;;;;;;;12.83;31.34;92803.84;2052760;69;20452;-75
2023/04/03 12:49:36;;;;;;;;;;;;;;;15.40;29.47;92812.94;2052432;69;20057;-74
2023/04/03 12:52:20;;;;;;;;;;;;;;;16.74;27.01;92821.50;2061356;69;20584;-76
2023/04/03 12:54:46;;;;;;;;;;;;;;;12.38;32.75;92806.31;2052397;70;20055;-75
2023/04/03 12:57:15;;;;;;;;;;;;;;;12.41;33.32;92799.41;2052315;70;20070;-74
2023/04/03 12:59:43;;;;;;;;;;;;;;;11.94;33.03;92808.06;2052364;70;20149;-75
2023/04/03 13:02:21;;;;;;;;;;;;;;;12.03;33.29;92797.97;2052287;70;20113;-73
2023/04/03 13:04:46;;;;;;;;;;;;;;;13.22;33.54;92803.81;2052320;70;20153;-75